sensor_id;sensor_type;location;lat;lon;timestamp;temperature;humidity
13251;DHT22;6692;50.710;7.180;2023-01-31T00:00:31;6.30;99.90
13251;DHT22;6692;50.710;7.180;2023-01-31T00:02:33;6.30;99.90
13251;DHT22;6692;50.710;7.180;2023-01-31T00:04:34;6.30;99.90
13251;DHT22;6692;50.710;7.180;2023-01-31T00:06:37;6.30;99.90
13251;DHT22;6692;50.710;7.180;2023-01-31T00:08:37;6.40;99.90
13251;DHT22;6692;50.710;7.180;2023-01-31T00:10:38;6.40;99.90
13251;DHT22;6692;50.710;7.180;2023-01-31T00:12:39;6.30;99.90
13251;DHT22;6692;50.710;7.180;2023-01-31T00:14:40;6.40;99.90
13251;DHT22;6692;50.710;7.180;2023-01-31T00:16:41;6.40;99.90
13251;DHT22;6692;50.710;7.180;2023-01-31T00:18:42;6.40;99.90
13251;DHT22;6692;50.710;7.180;2023-01-31T00:20:43;6.40;99.90
13251;DHT22;6692;50.710;7.180;2023-01-31T00:22:44;6.40;99.90
13251;DHT22;6692;50.710;7.180;2023-01-31T00:24:44;6.40;99.90
13251;DHT22;6692;50.710;7.180;2023-01-31T00:26:45;6.40;99.90
13251;DHT22;6692;50.710;7.180;2023-01-31T00:28:46;6.40;99.90
13251;DHT22;6692;50.710;7.180;2023-01-31T00:30:47;6.40;99.90
13251;DHT22;6692;50.710;7.180;2023-01-31T00:32:48;6.40;99.90
13251;DHT22;6692;50.710;7.180;2023-01-31T00:34:49;6.40;99.90
13251;DHT22;6692;50.710;7.180;2023-01-31T00:36:50;6.40;99.90
13251;DHT22;6692;50.710;7.180;2023-01-31T00:38:52;6.40;99.90
13251;DHT22;6692;50.710;7.180;2023-01-31T00:40:52;6.40;99.90
13251;DHT22;6692;50.710;7.180;2023-01-31T00:42:52;6.40;99.90
13251;DHT22;6692;50.710;7.180;2023-01-31T00:44:53;6.40;99.90
13251;DHT22;6692;50.710;7.180;2023-01-31T00:46:53;6.40;99.90
13251;DHT22;6692;50.710;7.180;2023-01-31T00:48:55;6.40;99.90
13251;DHT22;6692;50.710;7.180;2023-01-31T00:50:56;6.30;99.90
13251;DHT22;6692;50.710;7.180;2023-01-31T00:52:56;6.30;99.90
13251;DHT22;6692;50.710;7.180;2023-01-31T00:54:57;6.30;99.90
13251;DHT22;6692;50.710;7.180;2023-01-31T00:56:58;6.30;99.90
13251;DHT22;6692;50.710;7.180;2023-01-31T00:58:58;6.30;99.90
13251;DHT22;6692;50.710;7.180;2023-01-31T01:01:06;6.30;99.90
13251;DHT22;6692;50.710;7.180;2023-01-31T01:03:07;6.30;99.90
13251;DHT22;6692;50.710;7.180;2023-01-31T01:05:08;6.30;99.90
13251;DHT22;6692;50.710;7.180;2023-01-31T01:07:09;6.40;99.90
13251;DHT22;6692;50.710;7.180;2023-01-31T01:09:09;6.40;99.90
13251;DHT22;6692;50.710;7.180;2023-01-31T01:11:15;6.30;99.90
13251;DHT22;6692;50.710;7.180;2023-01-31T01:13:15;6.30;99.90
13251;DHT22;6692;50.710;7.180;2023-01-31T01:15:16;6.30;99.90
13251;DHT22;6692;50.710;7.180;2023-01-31T01:17:16;6.30;99.90
13251;DHT22;6692;50.710;7.180;2023-01-31T01:19:17;6.30;99.90
13251;DHT22;6692;50.710;7.180;2023-01-31T01:21:21;6.40;99.90
13251;DHT22;6692;50.710;7.180;2023-01-31T01:23:20;6.40;99.90
13251;DHT22;6692;50.710;7.180;2023-01-31T01:25:22;6.40;99.90
13251;DHT22;6692;50.710;7.180;2023-01-31T01:27:22;6.40;99.90
13251;DHT22;6692;50.710;7.180;2023-01-31T01:29:23;6.30;99.90
13251;DHT22;6692;50.710;7.180;2023-01-31T01:31:24;6.30;99.90
13251;DHT22;6692;50.710;7.180;2023-01-31T01:33:26;6.20;99.90
13251;DHT22;6692;50.710;7.180;2023-01-31T01:35:26;6.20;99.90
13251;DHT22;6692;50.710;7.180;2023-01-31T01:37:28;6.10;99.90
13251;DHT22;6692;50.710;7.180;2023-01-31T01:39:28;6.10;99.90
13251;DHT22;6692;50.710;7.180;2023-01-31T01:41:30;6.00;99.90
13251;DHT22;6692;50.710;7.180;2023-01-31T01:43:39;5.90;99.90
13251;DHT22;6692;50.710;7.180;2023-01-31T01:45:39;5.90;99.90
13251;DHT22;6692;50.710;7.180;2023-01-31T01:47:52;5.80;99.90
13251;DHT22;6692;50.710;7.180;2023-01-31T01:49:54;5.90;99.90
13251;DHT22;6692;50.710;7.180;2023-01-31T01:51:53;5.80;99.90
13251;DHT22;6692;50.710;7.180;2023-01-31T01:53:54;5.80;99.90
13251;DHT22;6692;50.710;7.180;2023-01-31T01:55:55;5.90;99.90
13251;DHT22;6692;50.710;7.180;2023-01-31T01:57:58;5.90;99.90
13251;DHT22;6692;50.710;7.180;2023-01-31T02:00:00;5.90;99.90
13251;DHT22;6692;50.710;7.180;2023-01-31T02:01:58;5.90;99.90
13251;DHT22;6692;50.710;7.180;2023-01-31T02:03:59;6.00;99.90
13251;DHT22;6692;50.710;7.180;2023-01-31T02:06:01;6.00;99.90
13251;DHT22;6692;50.710;7.180;2023-01-31T02:08:01;6.00;99.90
13251;DHT22;6692;50.710;7.180;2023-01-31T02:10:05;6.00;99.90
13251;DHT22;6692;50.710;7.180;2023-01-31T02:12:05;6.10;99.90
13251;DHT22;6692;50.710;7.180;2023-01-31T02:14:07;6.10;99.90
13251;DHT22;6692;50.710;7.180;2023-01-31T02:16:07;6.00;99.90
13251;DHT22;6692;50.710;7.180;2023-01-31T02:18:08;6.00;99.90
13251;DHT22;6692;50.710;7.180;2023-01-31T02:20:35;6.00;99.90
13251;DHT22;6692;50.710;7.180;2023-01-31T02:22:33;6.00;99.90
13251;DHT22;6692;50.710;7.180;2023-01-31T02:25:00;6.00;99.90
13251;DHT22;6692;50.710;7.180;2023-01-31T02:27:05;6.00;99.90
13251;DHT22;6692;50.710;7.180;2023-01-31T02:29:12;6.00;99.90
13251;DHT22;6692;50.710;7.180;2023-01-31T02:31:40;6.00;99.90
13251;DHT22;6692;50.710;7.180;2023-01-31T02:33:43;5.90;99.90
13251;DHT22;6692;50.710;7.180;2023-01-31T02:35:54;6.00;99.90
13251;DHT22;6692;50.710;7.180;2023-01-31T02:38:14;5.90;99.90
13251;DHT22;6692;50.710;7.180;2023-01-31T02:40:14;6.00;99.90
13251;DHT22;6692;50.710;7.180;2023-01-31T02:42:31;6.00;99.90
13251;DHT22;6692;50.710;7.180;2023-01-31T02:44:33;6.00;99.90
13251;DHT22;6692;50.710;7.180;2023-01-31T02:47:00;6.00;99.90
13251;DHT22;6692;50.710;7.180;2023-01-31T02:49:03;5.90;99.90
13251;DHT22;6692;50.710;7.180;2023-01-31T02:51:04;5.90;99.90
13251;DHT22;6692;50.710;7.180;2023-01-31T02:53:06;5.90;99.90
13251;DHT22;6692;50.710;7.180;2023-01-31T02:55:09;5.90;99.90
13251;DHT22;6692;50.710;7.180;2023-01-31T02:57:12;5.90;99.90
13251;DHT22;6692;50.710;7.180;2023-01-31T02:59:18;5.90;99.90
13251;DHT22;6692;50.710;7.180;2023-01-31T03:01:19;5.90;99.90
13251;DHT22;6692;50.710;7.180;2023-01-31T03:03:22;5.90;99.90
13251;DHT22;6692;50.710;7.180;2023-01-31T03:05:22;5.90;99.90
13251;DHT22;6692;50.710;7.180;2023-01-31T03:07:23;5.90;99.90
13251;DHT22;6692;50.710;7.180;2023-01-31T03:09:28;5.90;99.90
13251;DHT22;6692;50.710;7.180;2023-01-31T03:12:10;5.90;99.90
13251;DHT22;6692;50.710;7.180;2023-01-31T03:14:23;5.90;99.90
13251;DHT22;6692;50.710;7.180;2023-01-31T03:16:26;5.90;99.90
13251;DHT22;6692;50.710;7.180;2023-01-31T03:18:48;5.80;99.90
13251;DHT22;6692;50.710;7.180;2023-01-31T03:20:52;5.70;99.90
13251;DHT22;6692;50.710;7.180;2023-01-31T03:22:53;5.60;99.90
13251;DHT22;6692;50.710;7.180;2023-01-31T03:24:52;5.40;99.90
13251;DHT22;6692;50.710;7.180;2023-01-31T03:26:53;5.40;99.90
13251;DHT22;6692;50.710;7.180;2023-01-31T03:28:53;5.40;99.90
13251;DHT22;6692;50.710;7.180;2023-01-31T03:31:01;5.50;99.90
13251;DHT22;6692;50.710;7.180;2023-01-31T03:33:02;5.50;99.90
13251;DHT22;6692;50.710;7.180;2023-01-31T03:35:00;5.60;99.90
13251;DHT22;6692;50.710;7.180;2023-01-31T03:37:07;5.60;99.90
13251;DHT22;6692;50.710;7.180;2023-01-31T03:39:19;5.60;99.90
13251;DHT22;6692;50.710;7.180;2023-01-31T03:41:33;5.60;99.90
13251;DHT22;6692;50.710;7.180;2023-01-31T03:43:33;5.60;99.90
13251;DHT22;6692;50.710;7.180;2023-01-31T03:45:48;5.60;99.90
13251;DHT22;6692;50.710;7.180;2023-01-31T03:47:48;5.70;99.90
13251;DHT22;6692;50.710;7.180;2023-01-31T03:49:48;5.70;99.90
13251;DHT22;6692;50.710;7.180;2023-01-31T03:51:50;5.70;99.90
13251;DHT22;6692;50.710;7.180;2023-01-31T03:53:51;5.70;99.90
13251;DHT22;6692;50.710;7.180;2023-01-31T03:55:52;5.60;99.90
13251;DHT22;6692;50.710;7.180;2023-01-31T03:57:53;5.70;99.90
13251;DHT22;6692;50.710;7.180;2023-01-31T03:59:53;5.70;99.90
13251;DHT22;6692;50.710;7.180;2023-01-31T04:01:54;5.70;99.90
13251;DHT22;6692;50.710;7.180;2023-01-31T04:03:55;5.80;99.90
13251;DHT22;6692;50.710;7.180;2023-01-31T04:05:54;5.80;99.90
13251;DHT22;6692;50.710;7.180;2023-01-31T04:07:56;5.80;99.90
13251;DHT22;6692;50.710;7.180;2023-01-31T04:09:57;5.80;99.90
13251;DHT22;6692;50.710;7.180;2023-01-31T04:11:59;5.80;99.90
13251;DHT22;6692;50.710;7.180;2023-01-31T04:13:59;5.80;99.90
13251;DHT22;6692;50.710;7.180;2023-01-31T04:16:00;5.80;99.90
13251;DHT22;6692;50.710;7.180;2023-01-31T04:18:01;5.90;99.90
13251;DHT22;6692;50.710;7.180;2023-01-31T04:20:02;5.80;99.90
13251;DHT22;6692;50.710;7.180;2023-01-31T04:22:03;5.90;99.90
13251;DHT22;6692;50.710;7.180;2023-01-31T04:24:04;5.80;99.90
13251;DHT22;6692;50.710;7.180;2023-01-31T04:26:05;5.80;99.90
13251;DHT22;6692;50.710;7.180;2023-01-31T04:28:06;5.80;99.90
13251;DHT22;6692;50.710;7.180;2023-01-31T04:30:07;5.70;99.90
13251;DHT22;6692;50.710;7.180;2023-01-31T04:32:08;5.70;99.90
13251;DHT22;6692;50.710;7.180;2023-01-31T04:34:09;5.70;99.90
13251;DHT22;6692;50.710;7.180;2023-01-31T04:36:10;5.60;99.90
13251;DHT22;6692;50.710;7.180;2023-01-31T04:38:10;5.60;99.90
13251;DHT22;6692;50.710;7.180;2023-01-31T04:40:11;5.50;99.90
13251;DHT22;6692;50.710;7.180;2023-01-31T04:42:13;5.40;99.90
13251;DHT22;6692;50.710;7.180;2023-01-31T04:44:14;5.30;99.90
13251;DHT22;6692;50.710;7.180;2023-01-31T04:46:14;5.20;99.90
13251;DHT22;6692;50.710;7.180;2023-01-31T04:48:15;5.20;99.90
13251;DHT22;6692;50.710;7.180;2023-01-31T04:50:16;5.10;99.90
13251;DHT22;6692;50.710;7.180;2023-01-31T04:52:18;5.00;99.90
13251;DHT22;6692;50.710;7.180;2023-01-31T04:54:18;5.00;99.90
13251;DHT22;6692;50.710;7.180;2023-01-31T04:56:19;5.00;99.90
13251;DHT22;6692;50.710;7.180;2023-01-31T04:58:20;4.90;99.90
13251;DHT22;6692;50.710;7.180;2023-01-31T05:00:21;4.90;99.90
13251;DHT22;6692;50.710;7.180;2023-01-31T05:02:22;4.90;99.90
13251;DHT22;6692;50.710;7.180;2023-01-31T05:04:22;4.80;99.90
13251;DHT22;6692;50.710;7.180;2023-01-31T05:06:23;4.80;99.90
13251;DHT22;6692;50.710;7.180;2023-01-31T05:08:24;4.80;99.90
13251;DHT22;6692;50.710;7.180;2023-01-31T05:10:24;4.70;99.90
13251;DHT22;6692;50.710;7.180;2023-01-31T05:12:25;4.70;99.90
13251;DHT22;6692;50.710;7.180;2023-01-31T05:14:26;4.70;99.90
13251;DHT22;6692;50.710;7.180;2023-01-31T05:16:27;4.70;99.90
13251;DHT22;6692;50.710;7.180;2023-01-31T05:18:28;4.60;99.90
13251;DHT22;6692;50.710;7.180;2023-01-31T05:20:29;4.60;99.90
13251;DHT22;6692;50.710;7.180;2023-01-31T05:22:29;4.60;99.90
13251;DHT22;6692;50.710;7.180;2023-01-31T05:24:30;4.50;99.90
13251;DHT22;6692;50.710;7.180;2023-01-31T05:26:30;4.50;99.90
13251;DHT22;6692;50.710;7.180;2023-01-31T05:28:31;4.50;99.90
13251;DHT22;6692;50.710;7.180;2023-01-31T05:30:31;4.50;99.90
13251;DHT22;6692;50.710;7.180;2023-01-31T05:32:32;4.50;99.90
13251;DHT22;6692;50.710;7.180;2023-01-31T05:34:33;4.50;99.90
13251;DHT22;6692;50.710;7.180;2023-01-31T05:36:34;4.50;99.90
13251;DHT22;6692;50.710;7.180;2023-01-31T05:38:34;4.40;99.90
13251;DHT22;6692;50.710;7.180;2023-01-31T05:40:35;4.40;99.90
13251;DHT22;6692;50.710;7.180;2023-01-31T05:42:36;4.40;99.90
13251;DHT22;6692;50.710;7.180;2023-01-31T05:44:36;4.40;99.90
13251;DHT22;6692;50.710;7.180;2023-01-31T05:46:37;4.40;99.90
13251;DHT22;6692;50.710;7.180;2023-01-31T05:48:38;4.40;99.90
13251;DHT22;6692;50.710;7.180;2023-01-31T05:50:38;4.40;99.90
13251;DHT22;6692;50.710;7.180;2023-01-31T05:52:39;4.50;99.90
13251;DHT22;6692;50.710;7.180;2023-01-31T05:54:40;4.50;99.90
13251;DHT22;6692;50.710;7.180;2023-01-31T05:56:40;4.60;99.90
13251;DHT22;6692;50.710;7.180;2023-01-31T05:58:41;4.60;99.90
13251;DHT22;6692;50.710;7.180;2023-01-31T06:00:42;4.60;99.90
13251;DHT22;6692;50.710;7.180;2023-01-31T06:02:43;4.60;99.90
13251;DHT22;6692;50.710;7.180;2023-01-31T06:04:43;4.70;99.90
13251;DHT22;6692;50.710;7.180;2023-01-31T06:06:44;4.60;99.90
13251;DHT22;6692;50.710;7.180;2023-01-31T06:08:45;4.60;99.90
13251;DHT22;6692;50.710;7.180;2023-01-31T06:10:45;4.60;99.90
13251;DHT22;6692;50.710;7.180;2023-01-31T06:12:46;4.70;99.90
13251;DHT22;6692;50.710;7.180;2023-01-31T06:14:47;4.70;99.90
13251;DHT22;6692;50.710;7.180;2023-01-31T06:16:47;4.70;99.90
13251;DHT22;6692;50.710;7.180;2023-01-31T06:18:48;4.70;99.90
13251;DHT22;6692;50.710;7.180;2023-01-31T06:20:49;4.70;99.90
13251;DHT22;6692;50.710;7.180;2023-01-31T06:22:50;4.70;99.90
13251;DHT22;6692;50.710;7.180;2023-01-31T06:24:50;4.70;99.90
13251;DHT22;6692;50.710;7.180;2023-01-31T06:26:51;4.70;99.90
13251;DHT22;6692;50.710;7.180;2023-01-31T06:28:52;4.70;99.90
13251;DHT22;6692;50.710;7.180;2023-01-31T06:30:52;4.70;99.90
13251;DHT22;6692;50.710;7.180;2023-01-31T06:32:53;4.70;99.90
13251;DHT22;6692;50.710;7.180;2023-01-31T06:34:54;4.70;99.90
13251;DHT22;6692;50.710;7.180;2023-01-31T06:36:54;4.60;99.90
13251;DHT22;6692;50.710;7.180;2023-01-31T06:38:55;4.60;99.90
13251;DHT22;6692;50.710;7.180;2023-01-31T06:40:56;4.50;99.90
13251;DHT22;6692;50.710;7.180;2023-01-31T06:42:58;4.50;99.90
13251;DHT22;6692;50.710;7.180;2023-01-31T06:44:58;4.50;99.90
13251;DHT22;6692;50.710;7.180;2023-01-31T06:46:59;4.40;99.90
13251;DHT22;6692;50.710;7.180;2023-01-31T06:48:59;4.40;99.90
13251;DHT22;6692;50.710;7.180;2023-01-31T06:51:00;4.50;99.90
13251;DHT22;6692;50.710;7.180;2023-01-31T06:53:01;4.60;99.90
13251;DHT22;6692;50.710;7.180;2023-01-31T06:55:02;4.60;99.90
13251;DHT22;6692;50.710;7.180;2023-01-31T06:57:03;4.80;99.90
13251;DHT22;6692;50.710;7.180;2023-01-31T06:59:03;4.80;99.90
13251;DHT22;6692;50.710;7.180;2023-01-31T07:01:07;4.90;99.90
13251;DHT22;6692;50.710;7.180;2023-01-31T07:03:07;5.00;99.90
13251;DHT22;6692;50.710;7.180;2023-01-31T07:05:08;5.10;99.90
13251;DHT22;6692;50.710;7.180;2023-01-31T07:07:08;5.20;99.90
13251;DHT22;6692;50.710;7.180;2023-01-31T07:09:10;5.20;99.90
13251;DHT22;6692;50.710;7.180;2023-01-31T07:11:10;5.30;99.90
13251;DHT22;6692;50.710;7.180;2023-01-31T07:13:11;5.40;99.90
13251;DHT22;6692;50.710;7.180;2023-01-31T07:15:12;5.30;99.90
13251;DHT22;6692;50.710;7.180;2023-01-31T07:17:13;5.30;99.90
13251;DHT22;6692;50.710;7.180;2023-01-31T07:19:13;5.30;99.90
13251;DHT22;6692;50.710;7.180;2023-01-31T07:21:14;5.20;99.90
13251;DHT22;6692;50.710;7.180;2023-01-31T07:23:16;5.30;99.90
13251;DHT22;6692;50.710;7.180;2023-01-31T07:25:16;5.20;99.90
13251;DHT22;6692;50.710;7.180;2023-01-31T07:27:18;5.40;99.90
13251;DHT22;6692;50.710;7.180;2023-01-31T07:29:18;5.40;99.90
13251;DHT22;6692;50.710;7.180;2023-01-31T07:31:19;5.40;99.90
13251;DHT22;6692;50.710;7.180;2023-01-31T07:33:20;5.50;99.90
13251;DHT22;6692;50.710;7.180;2023-01-31T07:35:20;5.50;99.90
13251;DHT22;6692;50.710;7.180;2023-01-31T07:37:21;5.50;99.90
13251;DHT22;6692;50.710;7.180;2023-01-31T07:39:22;5.40;99.90
13251;DHT22;6692;50.710;7.180;2023-01-31T07:41:23;5.40;99.90
13251;DHT22;6692;50.710;7.180;2023-01-31T07:43:23;5.50;99.90
13251;DHT22;6692;50.710;7.180;2023-01-31T07:45:24;5.50;99.90
13251;DHT22;6692;50.710;7.180;2023-01-31T07:47:25;5.60;99.90
13251;DHT22;6692;50.710;7.180;2023-01-31T07:49:26;5.70;99.90
13251;DHT22;6692;50.710;7.180;2023-01-31T07:51:27;5.70;99.90
13251;DHT22;6692;50.710;7.180;2023-01-31T07:53:28;5.80;99.90
13251;DHT22;6692;50.710;7.180;2023-01-31T07:55:29;6.00;99.90
13251;DHT22;6692;50.710;7.180;2023-01-31T07:57:30;5.90;99.90
13251;DHT22;6692;50.710;7.180;2023-01-31T07:59:30;6.00;99.90
13251;DHT22;6692;50.710;7.180;2023-01-31T08:01:31;6.10;99.90
13251;DHT22;6692;50.710;7.180;2023-01-31T08:03:38;6.10;99.90
13251;DHT22;6692;50.710;7.180;2023-01-31T08:05:38;6.20;99.90
13251;DHT22;6692;50.710;7.180;2023-01-31T08:07:39;6.30;99.90
13251;DHT22;6692;50.710;7.180;2023-01-31T08:09:40;6.30;99.90
13251;DHT22;6692;50.710;7.180;2023-01-31T08:11:40;6.40;99.90
13251;DHT22;6692;50.710;7.180;2023-01-31T08:13:41;6.40;99.90
13251;DHT22;6692;50.710;7.180;2023-01-31T08:15:43;6.50;99.90
13251;DHT22;6692;50.710;7.180;2023-01-31T08:17:43;6.50;99.90
13251;DHT22;6692;50.710;7.180;2023-01-31T08:19:44;6.50;99.90
13251;DHT22;6692;50.710;7.180;2023-01-31T08:21:45;6.50;99.90
13251;DHT22;6692;50.710;7.180;2023-01-31T08:23:45;6.50;99.90
13251;DHT22;6692;50.710;7.180;2023-01-31T08:25:46;6.50;99.90
13251;DHT22;6692;50.710;7.180;2023-01-31T08:27:47;6.60;99.90
13251;DHT22;6692;50.710;7.180;2023-01-31T08:29:47;6.60;99.90
13251;DHT22;6692;50.710;7.180;2023-01-31T08:31:48;6.60;99.90
13251;DHT22;6692;50.710;7.180;2023-01-31T08:33:49;6.60;99.90
13251;DHT22;6692;50.710;7.180;2023-01-31T08:35:49;6.60;99.90
13251;DHT22;6692;50.710;7.180;2023-01-31T08:37:50;6.70;99.90
13251;DHT22;6692;50.710;7.180;2023-01-31T08:39:51;6.70;99.90
13251;DHT22;6692;50.710;7.180;2023-01-31T08:41:52;6.80;99.90
13251;DHT22;6692;50.710;7.180;2023-01-31T08:43:53;6.80;99.90
13251;DHT22;6692;50.710;7.180;2023-01-31T08:45:54;6.80;99.90
13251;DHT22;6692;50.710;7.180;2023-01-31T08:47:55;6.80;99.90
13251;DHT22;6692;50.710;7.180;2023-01-31T08:49:55;6.80;99.90
13251;DHT22;6692;50.710;7.180;2023-01-31T08:51:56;6.80;99.90
13251;DHT22;6692;50.710;7.180;2023-01-31T08:53:56;6.80;99.90
13251;DHT22;6692;50.710;7.180;2023-01-31T08:55:58;6.80;99.90
13251;DHT22;6692;50.710;7.180;2023-01-31T08:57:58;6.90;99.90
13251;DHT22;6692;50.710;7.180;2023-01-31T08:59:58;6.90;99.90
13251;DHT22;6692;50.710;7.180;2023-01-31T09:01:59;7.00;99.90
13251;DHT22;6692;50.710;7.180;2023-01-31T09:04:00;7.00;99.90
13251;DHT22;6692;50.710;7.180;2023-01-31T09:06:01;7.00;99.90
13251;DHT22;6692;50.710;7.180;2023-01-31T09:08:01;7.00;99.90
13251;DHT22;6692;50.710;7.180;2023-01-31T09:10:02;7.00;99.90
13251;DHT22;6692;50.710;7.180;2023-01-31T09:12:03;7.10;99.90
13251;DHT22;6692;50.710;7.180;2023-01-31T09:14:04;7.10;99.90
13251;DHT22;6692;50.710;7.180;2023-01-31T09:16:06;7.10;99.90
13251;DHT22;6692;50.710;7.180;2023-01-31T09:18:07;7.20;99.90
13251;DHT22;6692;50.710;7.180;2023-01-31T09:20:09;7.10;99.90
13251;DHT22;6692;50.710;7.180;2023-01-31T09:22:10;7.20;99.90
13251;DHT22;6692;50.710;7.180;2023-01-31T09:24:10;7.20;99.90
13251;DHT22;6692;50.710;7.180;2023-01-31T09:26:11;7.20;99.90
13251;DHT22;6692;50.710;7.180;2023-01-31T09:28:12;7.30;99.90
13251;DHT22;6692;50.710;7.180;2023-01-31T09:30:13;7.30;99.90
13251;DHT22;6692;50.710;7.180;2023-01-31T09:32:14;7.40;99.90
13251;DHT22;6692;50.710;7.180;2023-01-31T09:34:14;7.40;99.90
13251;DHT22;6692;50.710;7.180;2023-01-31T09:36:16;7.40;99.90
13251;DHT22;6692;50.710;7.180;2023-01-31T09:38:16;7.40;99.90
13251;DHT22;6692;50.710;7.180;2023-01-31T09:40:20;7.40;99.90
13251;DHT22;6692;50.710;7.180;2023-01-31T09:42:30;7.40;99.90
13251;DHT22;6692;50.710;7.180;2023-01-31T09:44:30;7.30;99.90
13251;DHT22;6692;50.710;7.180;2023-01-31T09:46:34;7.30;99.90
13251;DHT22;6692;50.710;7.180;2023-01-31T09:48:33;7.30;99.90
13251;DHT22;6692;50.710;7.180;2023-01-31T09:50:34;7.30;99.90
13251;DHT22;6692;50.710;7.180;2023-01-31T09:52:34;7.30;99.90
13251;DHT22;6692;50.710;7.180;2023-01-31T09:54:36;7.30;99.90
13251;DHT22;6692;50.710;7.180;2023-01-31T09:56:40;7.30;99.90
13251;DHT22;6692;50.710;7.180;2023-01-31T09:59:03;7.40;99.90
13251;DHT22;6692;50.710;7.180;2023-01-31T10:03:31;7.50;99.90
13251;DHT22;6692;50.710;7.180;2023-01-31T10:05:38;7.40;99.90
13251;DHT22;6692;50.710;7.180;2023-01-31T10:07:40;7.50;99.90
13251;DHT22;6692;50.710;7.180;2023-01-31T10:09:41;7.50;99.90
13251;DHT22;6692;50.710;7.180;2023-01-31T10:11:43;7.50;99.90
13251;DHT22;6692;50.710;7.180;2023-01-31T10:13:50;7.40;99.90
13251;DHT22;6692;50.710;7.180;2023-01-31T10:15:50;7.40;99.90
13251;DHT22;6692;50.710;7.180;2023-01-31T10:17:52;7.40;99.90
13251;DHT22;6692;50.710;7.180;2023-01-31T10:20:02;7.40;99.90
13251;DHT22;6692;50.710;7.180;2023-01-31T10:22:02;7.50;99.90
13251;DHT22;6692;50.710;7.180;2023-01-31T10:24:04;7.50;99.90
13251;DHT22;6692;50.710;7.180;2023-01-31T10:26:05;7.60;99.90
13251;DHT22;6692;50.710;7.180;2023-01-31T10:28:19;7.70;99.90
13251;DHT22;6692;50.710;7.180;2023-01-31T10:30:23;7.70;99.90
13251;DHT22;6692;50.710;7.180;2023-01-31T10:32:24;7.70;99.90
13251;DHT22;6692;50.710;7.180;2023-01-31T10:34:29;7.80;99.90
13251;DHT22;6692;50.710;7.180;2023-01-31T10:36:50;7.90;99.90
13251;DHT22;6692;50.710;7.180;2023-01-31T10:38:56;8.00;99.90
13251;DHT22;6692;50.710;7.180;2023-01-31T10:40:58;8.10;99.90
13251;DHT22;6692;50.710;7.180;2023-01-31T10:42:57;8.10;99.90
13251;DHT22;6692;50.710;7.180;2023-01-31T10:45:11;8.20;99.90
13251;DHT22;6692;50.710;7.180;2023-01-31T10:47:14;8.20;99.90
13251;DHT22;6692;50.710;7.180;2023-01-31T10:49:13;8.30;99.90
13251;DHT22;6692;50.710;7.180;2023-01-31T10:51:28;8.20;99.90
13251;DHT22;6692;50.710;7.180;2023-01-31T10:55:58;8.30;99.90
13251;DHT22;6692;50.710;7.180;2023-01-31T10:57:58;8.50;99.90
13251;DHT22;6692;50.710;7.180;2023-01-31T10:59:59;8.60;99.90
13251;DHT22;6692;50.710;7.180;2023-01-31T11:02:00;8.70;99.90
13251;DHT22;6692;50.710;7.180;2023-01-31T11:04:00;8.70;99.90
13251;DHT22;6692;50.710;7.180;2023-01-31T11:06:01;8.80;99.90
13251;DHT22;6692;50.710;7.180;2023-01-31T11:08:05;8.80;99.90
13251;DHT22;6692;50.710;7.180;2023-01-31T11:10:20;8.80;99.90
13251;DHT22;6692;50.710;7.180;2023-01-31T11:12:04;8.70;99.90
13251;DHT22;6692;50.710;7.180;2023-01-31T11:14:09;8.80;99.90
13251;DHT22;6692;50.710;7.180;2023-01-31T11:16:07;8.80;99.90
13251;DHT22;6692;50.710;7.180;2023-01-31T11:18:09;8.90;99.90
13251;DHT22;6692;50.710;7.180;2023-01-31T11:20:26;8.80;99.90
13251;DHT22;6692;50.710;7.180;2023-01-31T11:22:26;8.80;99.90
13251;DHT22;6692;50.710;7.180;2023-01-31T11:24:27;8.90;99.90
13251;DHT22;6692;50.710;7.180;2023-01-31T11:26:28;9.00;99.90
13251;DHT22;6692;50.710;7.180;2023-01-31T11:28:34;9.00;99.90
13251;DHT22;6692;50.710;7.180;2023-01-31T11:30:35;9.00;99.90
13251;DHT22;6692;50.710;7.180;2023-01-31T11:32:35;8.90;99.90
13251;DHT22;6692;50.710;7.180;2023-01-31T11:34:35;8.90;99.90
13251;DHT22;6692;50.710;7.180;2023-01-31T11:36:41;9.00;99.90
13251;DHT22;6692;50.710;7.180;2023-01-31T11:38:41;9.00;99.90
13251;DHT22;6692;50.710;7.180;2023-01-31T11:40:41;9.00;99.90
13251;DHT22;6692;50.710;7.180;2023-01-31T11:42:52;9.00;99.90
13251;DHT22;6692;50.710;7.180;2023-01-31T11:44:58;9.00;99.90
13251;DHT22;6692;50.710;7.180;2023-01-31T11:46:58;9.00;99.90
13251;DHT22;6692;50.710;7.180;2023-01-31T11:48:58;9.10;99.90
13251;DHT22;6692;50.710;7.180;2023-01-31T11:50:59;9.10;99.90
13251;DHT22;6692;50.710;7.180;2023-01-31T11:53:00;9.10;99.90
13251;DHT22;6692;50.710;7.180;2023-01-31T11:55:08;9.10;99.90
13251;DHT22;6692;50.710;7.180;2023-01-31T11:57:15;9.10;99.90
13251;DHT22;6692;50.710;7.180;2023-01-31T11:59:17;9.10;99.90
13251;DHT22;6692;50.710;7.180;2023-01-31T12:01:17;9.20;99.90
13251;DHT22;6692;50.710;7.180;2023-01-31T12:03:17;9.20;99.90
13251;DHT22;6692;50.710;7.180;2023-01-31T12:05:18;9.20;99.90
13251;DHT22;6692;50.710;7.180;2023-01-31T12:07:20;9.20;99.90
13251;DHT22;6692;50.710;7.180;2023-01-31T12:09:21;9.30;99.90
13251;DHT22;6692;50.710;7.180;2023-01-31T12:11:32;9.30;99.90
13251;DHT22;6692;50.710;7.180;2023-01-31T12:13:44;9.30;99.90
13251;DHT22;6692;50.710;7.180;2023-01-31T12:15:48;9.30;99.90
13251;DHT22;6692;50.710;7.180;2023-01-31T12:17:46;9.40;99.90
13251;DHT22;6692;50.710;7.180;2023-01-31T12:20:13;9.40;99.90
13251;DHT22;6692;50.710;7.180;2023-01-31T12:22:14;9.30;99.90
13251;DHT22;6692;50.710;7.180;2023-01-31T12:26:53;9.30;99.90
13251;DHT22;6692;50.710;7.180;2023-01-31T12:29:09;9.20;99.90
13251;DHT22;6692;50.710;7.180;2023-01-31T12:31:24;9.10;99.90
13251;DHT22;6692;50.710;7.180;2023-01-31T12:33:38;9.10;99.90
13251;DHT22;6692;50.710;7.180;2023-01-31T12:35:40;9.10;99.90
13251;DHT22;6692;50.710;7.180;2023-01-31T12:37:41;9.00;99.90
13251;DHT22;6692;50.710;7.180;2023-01-31T12:39:47;8.90;99.90
13251;DHT22;6692;50.710;7.180;2023-01-31T12:41:56;8.90;99.90
13251;DHT22;6692;50.710;7.180;2023-01-31T12:44:43;8.90;99.90
13251;DHT22;6692;50.710;7.180;2023-01-31T12:46:39;8.90;99.90
13251;DHT22;6692;50.710;7.180;2023-01-31T12:48:48;8.90;99.90
13251;DHT22;6692;50.710;7.180;2023-01-31T12:50:47;9.00;99.90
13251;DHT22;6692;50.710;7.180;2023-01-31T12:58:08;8.80;99.90
13251;DHT22;6692;50.710;7.180;2023-01-31T13:00:41;8.80;99.90
13251;DHT22;6692;50.710;7.180;2023-01-31T13:02:31;8.70;99.90
13251;DHT22;6692;50.710;7.180;2023-01-31T13:04:47;8.70;99.90
13251;DHT22;6692;50.710;7.180;2023-01-31T13:06:52;8.70;99.90
13251;DHT22;6692;50.710;7.180;2023-01-31T13:08:59;8.70;99.90
13251;DHT22;6692;50.710;7.180;2023-01-31T13:11:05;8.70;99.90
13251;DHT22;6692;50.710;7.180;2023-01-31T13:13:05;8.70;99.90
13251;DHT22;6692;50.710;7.180;2023-01-31T13:15:13;8.70;99.90
13251;DHT22;6692;50.710;7.180;2023-01-31T13:17:09;8.70;99.90
13251;DHT22;6692;50.710;7.180;2023-01-31T13:19:43;8.70;99.90
13251;DHT22;6692;50.710;7.180;2023-01-31T13:21:28;8.70;99.90
13251;DHT22;6692;50.710;7.180;2023-01-31T13:23:30;8.70;99.90
13251;DHT22;6692;50.710;7.180;2023-01-31T13:25:38;8.70;99.90
13251;DHT22;6692;50.710;7.180;2023-01-31T13:27:39;8.70;99.90
13251;DHT22;6692;50.710;7.180;2023-01-31T13:29:42;8.70;99.90
13251;DHT22;6692;50.710;7.180;2023-01-31T13:31:46;8.70;99.90
13251;DHT22;6692;50.710;7.180;2023-01-31T13:33:47;8.70;99.90